Eviapetrol II — SY6858 — position and weather

sailwx.info

Track history (hours):
 
Tides and Currents Weather Stations Pressure Air Temp Water Temp Dewpoint Dewpoint Depression Visibility Wind Speed Wind Dir Waves Ship Positions

Eviapetrol II

Last reported at 2016-May-31 11:27 UTC. Time now 2016-May-31 12:02 UTC.
Position N 38°02' E 023°36'.

Length 78 m; draft 4.3 m.

Type: Tanker. MMSI: 240493000.

Date/timePositionNaut miles runAvg speedWind from/ knotsBaromVisibWave heightAir tempDewpointWater temp
2016-May-31 11:27N 38°02' E 023°36'0 0.0
2016-May-31 10:33N 38°02' E 023°36'0 0.0
2016-May-31 09:33N 38°02' E 023°36'0 0.0
2016-May-31 08:32N 38°02' E 023°36'9 4.4
2016-May-31 06:30N 37°59' E 023°25'1910.0
2016-May-31 04:33N 37°55' E 023°01'18 9.2
2016-May-31 02:33N 38°05' E 022°41'1111.5
2016-May-31 01:33N 38°10' E 022°29'1211.5
2016-May-31 00:33N 38°15' E 022°15'74 1.8
2016-May-29 06:34N 38°30' E 020°43'2210.9
2016-May-29 04:33N 38°17' E 021°05'1110.5
2016-May-29 03:33N 38°16' E 021°19'5210.4
2016-May-28 22:33N 38°12' E 022°24'1110.9
2016-May-28 21:33N 38°07' E 022°37'22 9.8
2016-May-28 19:17N 37°55' E 023°00'2 2.2
2016-May-28 18:32N 37°55' E 023°02'8 8.0
2016-May-28 17:34N 37°55' E 023°12'1110.8
2016-May-28 16:34N 37°58' E 023°25'8 8.2
2016-May-28 15:34N 38°02' E 023°35'1 0.7
2016-May-28 14:30N 38°02' E 023°36'0 0.0
2016-May-28 13:30N 38°02' E 023°36'0 0.0
2016-May-28 12:33N 38°02' E 023°36'0 0.0
2016-May-28 11:30N 38°02' E 023°36'0 0.0
2016-May-28 10:33N 38°02' E 023°36'4 3.5
2016-May-28 09:34N 38°02' E 023°31'1 0.7
2016-May-28 08:32N 38°02' E 023°31'0 0.0
2016-May-28 07:32N 38°02' E 023°31'0 0.0
2016-May-28 06:32N 38°02' E 023°31'0 0.0
2016-May-28 05:32N 38°02' E 023°31'0 0.0
2016-May-28 04:32N 38°02' E 023°31'0 0.0
2016-May-28 03:32N 38°02' E 023°31'0 0.0
2016-May-28 02:32N 38°02' E 023°31'0 0.0
2016-May-28 01:32N 38°02' E 023°31'0 0.0
2016-May-28 00:32N 38°02' E 023°31'0 0.0
2016-May-27 23:32N 38°02' E 023°31'0 0.0
2016-May-27 22:32N 38°02' E 023°31'1 0.5
2016-May-27 21:26N 38°02' E 023°31'0 0.0
2016-May-27 20:32N 38°02' E 023°31'0 0.0
2016-May-27 19:32N 38°02' E 023°31'0 0.0
2016-May-27 18:20N 38°02' E 023°31'0 0.0
2016-May-27 17:17N 38°02' E 023°31'0 0.1
2016-May-27 16:33N 38°02' E 023°31'0 0.5
2016-May-27 15:34N 38°02' E 023°31'6 6.2
2016-May-27 14:33N 37°56' E 023°35'1010.4
2016-May-27 13:33N 37°47' E 023°42'1110.8
2016-May-27 12:33N 37°39' E 023°51'4611.4
2016-May-27 08:30N 37°25' E 024°46'1011.0
2016-May-27 07:33N 37°20' E 024°57'1111.2
2016-May-27 06:33N 37°17' E 025°11'1111.1
2016-May-27 05:33N 37°15' E 025°25'1111.0
2016-May-27 04:31N 37°12' E 025°38'  
2016-May-24 18:17N 37°41' E 024°57'4410.5
2016-May-24 14:03N 37°37' E 024°01'510.4
2016-May-24 13:33N 37°37' E 023°55'1010.3
2016-May-24 12:34N 37°41' E 023°43'1010.5
2016-May-24 11:34N 37°50' E 023°37'10 9.6
2016-May-24 10:33N 37°59' E 023°33'3 1.0
2016-May-24 07:05N 38°02' E 023°36'0 0.0
2016-May-24 06:28N 38°02' E 023°36'0 0.0
2016-May-24 05:29N 38°02' E 023°36'0 0.0
2016-May-24 04:28N 38°02' E 023°36'0 0.0
2016-May-24 01:04N 38°02' E 023°36'0 0.0
2016-May-23 23:16N 38°02' E 023°36'0 0.0
2016-May-23 16:23N 38°02' E 023°36'1 0.1
2016-May-23 10:26N 38°01' E 023°35'3 3.0
2016-May-23 09:31N 38°02' E 023°32'0 0.0
2016-May-23 08:33N 38°02' E 023°32'0 0.1
2016-May-23 07:33N 38°02' E 023°32'5 5.4
2016-May-23 06:33N 37°57' E 023°35'10 9.9
2016-May-23 05:33N 37°49' E 023°41'1110.5
2016-May-23 04:33N 37°39' E 023°47'1010.2
2016-May-23 03:33N 37°29' E 023°51'10 9.8
2016-May-23 02:34N 37°20' E 023°55'  
Track history (hours):
 
Tides and Currents Weather Stations Pressure Air Temp Water Temp Dewpoint Dewpoint Depression Visibility Wind Speed Wind Dir Waves Ship Positions

Eviapetrol II

Last reported at 2016-May-31 11:27 UTC. Time now 2016-May-31 12:02 UTC.
Position N 38°02' E 023°36'.

Length 78 m; draft 4.3 m.

Type: Tanker. MMSI: 240493000.

Date/timePositionNaut miles runAvg speedWind from/ knotsBaromVisibWave heightAir tempDewpointWater temp
2016-May-31 11:27N 38°02' E 023°36'0 0.0
2016-May-31 10:33N 38°02' E 023°36'0 0.0
2016-May-31 09:33N 38°02' E 023°36'0 0.0
2016-May-31 08:32N 38°02' E 023°36'9 4.4
2016-May-31 06:30N 37°59' E 023°25'1910.0
2016-May-31 04:33N 37°55' E 023°01'18 9.2
2016-May-31 02:33N 38°05' E 022°41'1111.5
2016-May-31 01:33N 38°10' E 022°29'1211.5
2016-May-31 00:33N 38°15' E 022°15'74 1.8
2016-May-29 06:34N 38°30' E 020°43'2210.9
2016-May-29 04:33N 38°17' E 021°05'1110.5
2016-May-29 03:33N 38°16' E 021°19'5210.4
2016-May-28 22:33N 38°12' E 022°24'1110.9
2016-May-28 21:33N 38°07' E 022°37'22 9.8
2016-May-28 19:17N 37°55' E 023°00'2 2.2
2016-May-28 18:32N 37°55' E 023°02'8 8.0
2016-May-28 17:34N 37°55' E 023°12'1110.8
2016-May-28 16:34N 37°58' E 023°25'8 8.2
2016-May-28 15:34N 38°02' E 023°35'1 0.7
2016-May-28 14:30N 38°02' E 023°36'0 0.0
2016-May-28 13:30N 38°02' E 023°36'0 0.0
2016-May-28 12:33N 38°02' E 023°36'0 0.0
2016-May-28 11:30N 38°02' E 023°36'0 0.0
2016-May-28 10:33N 38°02' E 023°36'4 3.5
2016-May-28 09:34N 38°02' E 023°31'1 0.7
2016-May-28 08:32N 38°02' E 023°31'0 0.0
2016-May-28 07:32N 38°02' E 023°31'0 0.0
2016-May-28 06:32N 38°02' E 023°31'0 0.0
2016-May-28 05:32N 38°02' E 023°31'0 0.0
2016-May-28 04:32N 38°02' E 023°31'0 0.0
2016-May-28 03:32N 38°02' E 023°31'0 0.0
2016-May-28 02:32N 38°02' E 023°31'0 0.0
2016-May-28 01:32N 38°02' E 023°31'0 0.0
2016-May-28 00:32N 38°02' E 023°31'0 0.0
2016-May-27 23:32N 38°02' E 023°31'0 0.0
2016-May-27 22:32N 38°02' E 023°31'1 0.5
2016-May-27 21:26N 38°02' E 023°31'0 0.0
2016-May-27 20:32N 38°02' E 023°31'0 0.0
2016-May-27 19:32N 38°02' E 023°31'0 0.0
2016-May-27 18:20N 38°02' E 023°31'0 0.0
2016-May-27 17:17N 38°02' E 023°31'0 0.1
2016-May-27 16:33N 38°02' E 023°31'0 0.5
2016-May-27 15:34N 38°02' E 023°31'6 6.2
2016-May-27 14:33N 37°56' E 023°35'1010.4
2016-May-27 13:33N 37°47' E 023°42'1110.8
2016-May-27 12:33N 37°39' E 023°51'4611.4
2016-May-27 08:30N 37°25' E 024°46'1011.0
2016-May-27 07:33N 37°20' E 024°57'1111.2
2016-May-27 06:33N 37°17' E 025°11'1111.1
2016-May-27 05:33N 37°15' E 025°25'1111.0
2016-May-27 04:31N 37°12' E 025°38'  
2016-May-24 18:17N 37°41' E 024°57'4410.5
2016-May-24 14:03N 37°37' E 024°01'510.4
2016-May-24 13:33N 37°37' E 023°55'1010.3
2016-May-24 12:34N 37°41' E 023°43'1010.5
2016-May-24 11:34N 37°50' E 023°37'10 9.6
2016-May-24 10:33N 37°59' E 023°33'3 1.0
2016-May-24 07:05N 38°02' E 023°36'0 0.0
2016-May-24 06:28N 38°02' E 023°36'0 0.0
2016-May-24 05:29N 38°02' E 023°36'0 0.0
2016-May-24 04:28N 38°02' E 023°36'0 0.0
2016-May-24 01:04N 38°02' E 023°36'0 0.0
2016-May-23 23:16N 38°02' E 023°36'0 0.0
2016-May-23 16:23N 38°02' E 023°36'1 0.1
2016-May-23 10:26N 38°01' E 023°35'3 3.0
2016-May-23 09:31N 38°02' E 023°32'0 0.0
2016-May-23 08:33N 38°02' E 023°32'0 0.1
2016-May-23 07:33N 38°02' E 023°32'5 5.4
2016-May-23 06:33N 37°57' E 023°35'10 9.9
2016-May-23 05:33N 37°49' E 023°41'1110.5
2016-May-23 04:33N 37°39' E 023°47'1010.2
2016-May-23 03:33N 37°29' E 023°51'10 9.8
2016-May-23 02:34N 37°20' E 023°55'  

Dump ship's entire track history